sensor_id;sensor_type;location;lat;lon;timestamp;temperature;humidity
33580;DHT22;19909;43.644;-79.438;2024-01-15T00:00:08;22.90;22.50
33580;DHT22;19909;43.644;-79.438;2024-01-15T00:02:35;22.70;22.40
33580;DHT22;19909;43.644;-79.438;2024-01-15T00:05:01;22.60;22.50
33580;DHT22;19909;43.644;-79.438;2024-01-15T00:07:27;22.60;22.50
33580;DHT22;19909;43.644;-79.438;2024-01-15T00:09:54;22.50;22.60
33580;DHT22;19909;43.644;-79.438;2024-01-15T00:12:20;22.50;22.70
33580;DHT22;19909;43.644;-79.438;2024-01-15T00:14:48;22.50;22.70
33580;DHT22;19909;43.644;-79.438;2024-01-15T00:17:14;22.60;22.70
33580;DHT22;19909;43.644;-79.438;2024-01-15T00:19:41;22.60;22.60
33580;DHT22;19909;43.644;-79.438;2024-01-15T00:22:09;22.70;22.60
33580;DHT22;19909;43.644;-79.438;2024-01-15T00:24:36;22.80;22.60
33580;DHT22;19909;43.644;-79.438;2024-01-15T00:27:04;22.90;22.60
33580;DHT22;19909;43.644;-79.438;2024-01-15T00:29:30;23.00;22.40
33580;DHT22;19909;43.644;-79.438;2024-01-15T00:31:56;22.90;22.30
33580;DHT22;19909;43.644;-79.438;2024-01-15T00:34:23;22.80;22.30
33580;DHT22;19909;43.644;-79.438;2024-01-15T00:36:50;22.80;22.40
33580;DHT22;19909;43.644;-79.438;2024-01-15T00:39:16;22.70;22.40
33580;DHT22;19909;43.644;-79.438;2024-01-15T00:41:42;22.60;22.40
33580;DHT22;19909;43.644;-79.438;2024-01-15T00:44:09;22.50;22.40
33580;DHT22;19909;43.644;-79.438;2024-01-15T00:46:45;22.40;22.40
33580;DHT22;19909;43.644;-79.438;2024-01-15T00:49:13;22.30;22.90
33580;DHT22;19909;43.644;-79.438;2024-01-15T00:51:39;22.20;22.50
33580;DHT22;19909;43.644;-79.438;2024-01-15T00:54:06;22.20;22.60
33580;DHT22;19909;43.644;-79.438;2024-01-15T00:56:33;22.30;22.60
33580;DHT22;19909;43.644;-79.438;2024-01-15T00:59:00;22.30;22.60
33580;DHT22;19909;43.644;-79.438;2024-01-15T01:01:27;22.40;22.50
33580;DHT22;19909;43.644;-79.438;2024-01-15T01:03:54;22.50;22.50
33580;DHT22;19909;43.644;-79.438;2024-01-15T01:06:20;22.50;22.50
33580;DHT22;19909;43.644;-79.438;2024-01-15T01:08:46;22.70;22.50
33580;DHT22;19909;43.644;-79.438;2024-01-15T01:11:14;22.70;22.50
33580;DHT22;19909;43.644;-79.438;2024-01-15T01:13:41;22.70;22.40
33580;DHT22;19909;43.644;-79.438;2024-01-15T01:16:09;22.70;22.30
33580;DHT22;19909;43.644;-79.438;2024-01-15T01:18:35;22.50;22.20
33580;DHT22;19909;43.644;-79.438;2024-01-15T01:21:02;22.50;22.30
33580;DHT22;19909;43.644;-79.438;2024-01-15T01:23:29;22.40;22.20
33580;DHT22;19909;43.644;-79.438;2024-01-15T01:25:55;22.30;22.30
33580;DHT22;19909;43.644;-79.438;2024-01-15T01:28:21;22.20;22.40
33580;DHT22;19909;43.644;-79.438;2024-01-15T01:30:47;22.30;22.40
33580;DHT22;19909;43.644;-79.438;2024-01-15T01:33:13;22.20;22.40
33580;DHT22;19909;43.644;-79.438;2024-01-15T01:35:39;22.30;22.50
33580;DHT22;19909;43.644;-79.438;2024-01-15T01:38:06;22.40;22.40
33580;DHT22;19909;43.644;-79.438;2024-01-15T01:40:32;22.50;22.40
33580;DHT22;19909;43.644;-79.438;2024-01-15T01:42:58;22.60;22.40
33580;DHT22;19909;43.644;-79.438;2024-01-15T01:45:24;22.60;22.30
33580;DHT22;19909;43.644;-79.438;2024-01-15T01:47:50;22.70;22.30
33580;DHT22;19909;43.644;-79.438;2024-01-15T01:50:17;22.80;22.30
33580;DHT22;19909;43.644;-79.438;2024-01-15T01:52:44;22.70;22.30
33580;DHT22;19909;43.644;-79.438;2024-01-15T01:55:11;22.60;22.20
33580;DHT22;19909;43.644;-79.438;2024-01-15T01:57:37;22.50;22.20
33580;DHT22;19909;43.644;-79.438;2024-01-15T02:00:05;22.40;22.00
33580;DHT22;19909;43.644;-79.438;2024-01-15T02:02:33;22.30;22.10
33580;DHT22;19909;43.644;-79.438;2024-01-15T02:05:00;22.20;22.20
33580;DHT22;19909;43.644;-79.438;2024-01-15T02:07:27;22.20;22.30
33580;DHT22;19909;43.644;-79.438;2024-01-15T02:09:54;22.20;22.30
33580;DHT22;19909;43.644;-79.438;2024-01-15T02:12:21;22.20;22.40
33580;DHT22;19909;43.644;-79.438;2024-01-15T02:14:48;22.30;22.40
33580;DHT22;19909;43.644;-79.438;2024-01-15T02:17:14;22.30;22.20
33580;DHT22;19909;43.644;-79.438;2024-01-15T02:19:41;22.50;22.20
33580;DHT22;19909;43.644;-79.438;2024-01-15T02:22:07;22.60;22.30
33580;DHT22;19909;43.644;-79.438;2024-01-15T02:24:33;22.70;22.20
33580;DHT22;19909;43.644;-79.438;2024-01-15T02:27:00;22.70;22.20
33580;DHT22;19909;43.644;-79.438;2024-01-15T02:29:26;22.70;22.20
33580;DHT22;19909;43.644;-79.438;2024-01-15T02:31:52;22.70;22.10
33580;DHT22;19909;43.644;-79.438;2024-01-15T02:34:18;22.60;22.50
33580;DHT22;19909;43.644;-79.438;2024-01-15T02:36:45;22.50;22.00
33580;DHT22;19909;43.644;-79.438;2024-01-15T02:39:11;22.40;22.00
33580;DHT22;19909;43.644;-79.438;2024-01-15T02:41:37;22.30;22.00
33580;DHT22;19909;43.644;-79.438;2024-01-15T02:44:03;22.20;22.00
33580;DHT22;19909;43.644;-79.438;2024-01-15T02:46:30;22.10;22.10
33580;DHT22;19909;43.644;-79.438;2024-01-15T02:48:56;22.20;22.20
33580;DHT22;19909;43.644;-79.438;2024-01-15T02:51:22;22.20;22.30
33580;DHT22;19909;43.644;-79.438;2024-01-15T02:53:49;22.20;22.30
33580;DHT22;19909;43.644;-79.438;2024-01-15T02:56:16;22.20;22.10
33580;DHT22;19909;43.644;-79.438;2024-01-15T02:58:43;22.30;22.10
33580;DHT22;19909;43.644;-79.438;2024-01-15T03:01:09;22.40;22.50
33580;DHT22;19909;43.644;-79.438;2024-01-15T03:03:35;22.50;22.00
33580;DHT22;19909;43.644;-79.438;2024-01-15T03:06:02;22.60;22.50
33580;DHT22;19909;43.644;-79.438;2024-01-15T03:08:28;22.60;22.10
33580;DHT22;19909;43.644;-79.438;2024-01-15T03:10:55;22.60;22.00
33580;DHT22;19909;43.644;-79.438;2024-01-15T03:13:21;22.50;21.90
33580;DHT22;19909;43.644;-79.438;2024-01-15T03:15:47;22.40;21.90
33580;DHT22;19909;43.644;-79.438;2024-01-15T03:18:14;22.30;21.90
33580;DHT22;19909;43.644;-79.438;2024-01-15T03:20:40;22.20;22.00
33580;DHT22;19909;43.644;-79.438;2024-01-15T03:23:06;22.20;22.00
33580;DHT22;19909;43.644;-79.438;2024-01-15T03:25:32;22.20;22.10
33580;DHT22;19909;43.644;-79.438;2024-01-15T03:27:59;22.20;22.10
33580;DHT22;19909;43.644;-79.438;2024-01-15T03:30:25;22.20;22.10
33580;DHT22;19909;43.644;-79.438;2024-01-15T03:32:51;22.30;22.00
33580;DHT22;19909;43.644;-79.438;2024-01-15T03:35:21;22.40;22.00
33580;DHT22;19909;43.644;-79.438;2024-01-15T03:37:47;22.50;22.00
33580;DHT22;19909;43.644;-79.438;2024-01-15T03:40:14;22.60;22.00
33580;DHT22;19909;43.644;-79.438;2024-01-15T03:42:40;22.70;22.00
33580;DHT22;19909;43.644;-79.438;2024-01-15T03:45:07;22.80;21.90
33580;DHT22;19909;43.644;-79.438;2024-01-15T03:47:33;22.90;21.90
33580;DHT22;19909;43.644;-79.438;2024-01-15T03:50:00;22.90;21.90
33580;DHT22;19909;43.644;-79.438;2024-01-15T03:52:26;23.10;21.90
33580;DHT22;19909;43.644;-79.438;2024-01-15T03:54:52;23.10;21.80
33580;DHT22;19909;43.644;-79.438;2024-01-15T03:57:18;23.20;21.80
33580;DHT22;19909;43.644;-79.438;2024-01-15T03:59:45;23.20;21.90
33580;DHT22;19909;43.644;-79.438;2024-01-15T04:02:13;23.10;21.80
33580;DHT22;19909;43.644;-79.438;2024-01-15T04:04:43;23.00;21.80
33580;DHT22;19909;43.644;-79.438;2024-01-15T04:07:10;22.90;21.70
33580;DHT22;19909;43.644;-79.438;2024-01-15T04:09:37;22.80;21.70
33580;DHT22;19909;43.644;-79.438;2024-01-15T04:12:04;22.60;21.80
33580;DHT22;19909;43.644;-79.438;2024-01-15T04:14:30;22.50;21.80
33580;DHT22;19909;43.644;-79.438;2024-01-15T04:16:57;22.40;21.80
33580;DHT22;19909;43.644;-79.438;2024-01-15T04:19:23;22.30;21.80
33580;DHT22;19909;43.644;-79.438;2024-01-15T04:21:50;22.20;21.90
33580;DHT22;19909;43.644;-79.438;2024-01-15T04:24:17;22.10;21.80
33580;DHT22;19909;43.644;-79.438;2024-01-15T04:26:45;22.00;21.90
33580;DHT22;19909;43.644;-79.438;2024-01-15T04:29:12;22.00;21.90
33580;DHT22;19909;43.644;-79.438;2024-01-15T04:31:39;21.90;22.00
33580;DHT22;19909;43.644;-79.438;2024-01-15T04:34:05;21.80;22.00
33580;DHT22;19909;43.644;-79.438;2024-01-15T04:36:31;21.70;22.00
33580;DHT22;19909;43.644;-79.438;2024-01-15T04:38:57;21.60;22.00
33580;DHT22;19909;43.644;-79.438;2024-01-15T04:41:24;21.50;22.10
33580;DHT22;19909;43.644;-79.438;2024-01-15T04:43:50;21.50;22.10
33580;DHT22;19909;43.644;-79.438;2024-01-15T04:46:16;21.50;22.60
33580;DHT22;19909;43.644;-79.438;2024-01-15T04:48:43;21.40;22.10
33580;DHT22;19909;43.644;-79.438;2024-01-15T04:51:09;21.30;22.10
33580;DHT22;19909;43.644;-79.438;2024-01-15T04:53:36;21.20;22.10
33580;DHT22;19909;43.644;-79.438;2024-01-15T04:56:03;21.30;22.30
33580;DHT22;19909;43.644;-79.438;2024-01-15T04:58:29;21.30;22.30
33580;DHT22;19909;43.644;-79.438;2024-01-15T05:00:56;21.40;22.30
33580;DHT22;19909;43.644;-79.438;2024-01-15T05:03:22;21.50;22.20
33580;DHT22;19909;43.644;-79.438;2024-01-15T05:05:48;21.60;22.20
33580;DHT22;19909;43.644;-79.438;2024-01-15T05:08:14;21.70;22.10
33580;DHT22;19909;43.644;-79.438;2024-01-15T05:10:41;21.80;22.30
33580;DHT22;19909;43.644;-79.438;2024-01-15T05:13:08;21.90;22.10
33580;DHT22;19909;43.644;-79.438;2024-01-15T05:15:35;22.00;22.20
33580;DHT22;19909;43.644;-79.438;2024-01-15T05:18:01;21.90;22.00
33580;DHT22;19909;43.644;-79.438;2024-01-15T05:20:27;21.90;22.00
33580;DHT22;19909;43.644;-79.438;2024-01-15T05:22:54;21.80;21.80
33580;DHT22;19909;43.644;-79.438;2024-01-15T05:25:21;21.70;21.90
33580;DHT22;19909;43.644;-79.438;2024-01-15T05:27:47;21.60;21.90
33580;DHT22;19909;43.644;-79.438;2024-01-15T05:30:14;21.50;21.90
33580;DHT22;19909;43.644;-79.438;2024-01-15T05:32:40;21.50;22.00
33580;DHT22;19909;43.644;-79.438;2024-01-15T05:35:07;21.50;22.10
33580;DHT22;19909;43.644;-79.438;2024-01-15T05:37:33;21.50;22.10
33580;DHT22;19909;43.644;-79.438;2024-01-15T05:40:00;21.50;22.10
33580;DHT22;19909;43.644;-79.438;2024-01-15T05:42:26;21.60;22.00
33580;DHT22;19909;43.644;-79.438;2024-01-15T05:44:55;21.70;22.00
33580;DHT22;19909;43.644;-79.438;2024-01-15T05:47:22;21.80;21.90
33580;DHT22;19909;43.644;-79.438;2024-01-15T05:49:49;22.00;22.00
33580;DHT22;19909;43.644;-79.438;2024-01-15T05:52:15;22.00;22.00
33580;DHT22;19909;43.644;-79.438;2024-01-15T05:54:43;22.00;22.00
33580;DHT22;19909;43.644;-79.438;2024-01-15T05:57:09;22.00;21.90
33580;DHT22;19909;43.644;-79.438;2024-01-15T05:59:35;21.90;21.90
33580;DHT22;19909;43.644;-79.438;2024-01-15T06:02:02;21.80;21.80
33580;DHT22;19909;43.644;-79.438;2024-01-15T06:04:28;21.70;21.90
33580;DHT22;19909;43.644;-79.438;2024-01-15T06:06:54;21.60;21.80
33580;DHT22;19909;43.644;-79.438;2024-01-15T06:09:21;21.50;21.80
33580;DHT22;19909;43.644;-79.438;2024-01-15T06:11:47;21.50;21.90
33580;DHT22;19909;43.644;-79.438;2024-01-15T06:14:14;21.50;22.10
33580;DHT22;19909;43.644;-79.438;2024-01-15T06:16:40;21.50;22.10
33580;DHT22;19909;43.644;-79.438;2024-01-15T06:19:06;21.50;22.10
33580;DHT22;19909;43.644;-79.438;2024-01-15T06:21:32;21.60;22.00
33580;DHT22;19909;43.644;-79.438;2024-01-15T06:23:59;21.70;21.90
33580;DHT22;19909;43.644;-79.438;2024-01-15T06:26:25;21.80;22.00
33580;DHT22;19909;43.644;-79.438;2024-01-15T06:28:52;21.90;21.90
33580;DHT22;19909;43.644;-79.438;2024-01-15T06:31:18;22.00;21.90
33580;DHT22;19909;43.644;-79.438;2024-01-15T06:33:44;22.10;22.00
33580;DHT22;19909;43.644;-79.438;2024-01-15T06:36:14;22.10;22.00
33580;DHT22;19909;43.644;-79.438;2024-01-15T06:38:43;22.00;21.80
33580;DHT22;19909;43.644;-79.438;2024-01-15T06:41:10;22.00;21.80
33580;DHT22;19909;43.644;-79.438;2024-01-15T06:43:36;21.80;21.70
33580;DHT22;19909;43.644;-79.438;2024-01-15T06:46:03;21.80;21.80
33580;DHT22;19909;43.644;-79.438;2024-01-15T06:48:29;21.60;21.80
33580;DHT22;19909;43.644;-79.438;2024-01-15T06:50:56;21.60;21.90
33580;DHT22;19909;43.644;-79.438;2024-01-15T06:53:22;21.60;21.90
33580;DHT22;19909;43.644;-79.438;2024-01-15T06:55:49;21.60;22.00
33580;DHT22;19909;43.644;-79.438;2024-01-15T06:58:17;21.60;22.00
33580;DHT22;19909;43.644;-79.438;2024-01-15T07:00:44;21.70;21.90
33580;DHT22;19909;43.644;-79.438;2024-01-15T07:03:10;21.70;21.80
33580;DHT22;19909;43.644;-79.438;2024-01-15T07:05:37;21.80;21.80
33580;DHT22;19909;43.644;-79.438;2024-01-15T07:08:03;22.00;21.80
33580;DHT22;19909;43.644;-79.438;2024-01-15T07:10:30;22.10;21.80
33580;DHT22;19909;43.644;-79.438;2024-01-15T07:12:56;22.10;21.90
33580;DHT22;19909;43.644;-79.438;2024-01-15T07:15:23;22.10;21.90
33580;DHT22;19909;43.644;-79.438;2024-01-15T07:17:49;22.10;21.80
33580;DHT22;19909;43.644;-79.438;2024-01-15T07:20:15;22.00;21.70
33580;DHT22;19909;43.644;-79.438;2024-01-15T07:22:43;21.90;21.70
33580;DHT22;19909;43.644;-79.438;2024-01-15T07:25:10;21.80;21.70
33580;DHT22;19909;43.644;-79.438;2024-01-15T07:27:36;21.70;21.60
33580;DHT22;19909;43.644;-79.438;2024-01-15T07:30:03;21.60;21.80
33580;DHT22;19909;43.644;-79.438;2024-01-15T07:32:31;21.50;21.90
33580;DHT22;19909;43.644;-79.438;2024-01-15T07:34:58;21.60;22.40
33580;DHT22;19909;43.644;-79.438;2024-01-15T07:37:25;21.60;21.90
33580;DHT22;19909;43.644;-79.438;2024-01-15T07:39:51;21.70;21.80
33580;DHT22;19909;43.644;-79.438;2024-01-15T07:42:18;21.80;21.70
33580;DHT22;19909;43.644;-79.438;2024-01-15T07:44:44;21.80;21.70
33580;DHT22;19909;43.644;-79.438;2024-01-15T07:47:10;22.00;21.70
33580;DHT22;19909;43.644;-79.438;2024-01-15T07:49:37;22.10;21.70
33580;DHT22;19909;43.644;-79.438;2024-01-15T07:52:03;22.20;21.70
33580;DHT22;19909;43.644;-79.438;2024-01-15T07:54:31;22.20;21.80
33580;DHT22;19909;43.644;-79.438;2024-01-15T07:57:01;22.10;21.70
33580;DHT22;19909;43.644;-79.438;2024-01-15T07:59:34;22.10;21.60
33580;DHT22;19909;43.644;-79.438;2024-01-15T08:02:00;22.00;21.60
33580;DHT22;19909;43.644;-79.438;2024-01-15T08:04:27;21.80;21.50
33580;DHT22;19909;43.644;-79.438;2024-01-15T08:06:53;21.80;21.60
33580;DHT22;19909;43.644;-79.438;2024-01-15T08:09:19;21.70;21.70
33580;DHT22;19909;43.644;-79.438;2024-01-15T08:11:45;21.70;21.70
33580;DHT22;19909;43.644;-79.438;2024-01-15T08:14:12;21.70;21.80
33580;DHT22;19909;43.644;-79.438;2024-01-15T08:16:39;21.70;21.80
33580;DHT22;19909;43.644;-79.438;2024-01-15T08:19:06;21.80;21.70
33580;DHT22;19909;43.644;-79.438;2024-01-15T08:21:33;21.80;21.60
33580;DHT22;19909;43.644;-79.438;2024-01-15T08:24:00;21.90;21.60
33580;DHT22;19909;43.644;-79.438;2024-01-15T08:26:28;22.10;21.60
33580;DHT22;19909;43.644;-79.438;2024-01-15T08:28:55;22.10;21.60
33580;DHT22;19909;43.644;-79.438;2024-01-15T08:31:21;22.10;21.60
33580;DHT22;19909;43.644;-79.438;2024-01-15T08:33:48;22.10;21.50
33580;DHT22;19909;43.644;-79.438;2024-01-15T08:36:15;22.00;21.50
33580;DHT22;19909;43.644;-79.438;2024-01-15T08:38:41;21.90;21.50
33580;DHT22;19909;43.644;-79.438;2024-01-15T08:41:07;21.80;21.50
33580;DHT22;19909;43.644;-79.438;2024-01-15T08:43:35;21.70;21.50
33580;DHT22;19909;43.644;-79.438;2024-01-15T08:46:02;21.60;21.60
33580;DHT22;19909;43.644;-79.438;2024-01-15T08:48:28;21.60;21.70
33580;DHT22;19909;43.644;-79.438;2024-01-15T08:50:55;21.60;21.70
33580;DHT22;19909;43.644;-79.438;2024-01-15T08:53:21;21.70;21.70
33580;DHT22;19909;43.644;-79.438;2024-01-15T08:55:47;21.70;21.60
33580;DHT22;19909;43.644;-79.438;2024-01-15T08:58:14;21.80;21.50
33580;DHT22;19909;43.644;-79.438;2024-01-15T09:00:40;21.90;21.50
33580;DHT22;19909;43.644;-79.438;2024-01-15T09:03:07;22.00;21.50
33580;DHT22;19909;43.644;-79.438;2024-01-15T09:05:34;22.10;21.50
33580;DHT22;19909;43.644;-79.438;2024-01-15T09:08:01;22.20;21.50
33580;DHT22;19909;43.644;-79.438;2024-01-15T09:10:27;22.20;21.50
33580;DHT22;19909;43.644;-79.438;2024-01-15T09:12:53;22.20;21.40
33580;DHT22;19909;43.644;-79.438;2024-01-15T09:15:19;22.10;21.40
33580;DHT22;19909;43.644;-79.438;2024-01-15T09:17:46;21.90;21.30
33580;DHT22;19909;43.644;-79.438;2024-01-15T09:20:12;21.90;21.30
33580;DHT22;19909;43.644;-79.438;2024-01-15T09:22:38;21.70;21.30
33580;DHT22;19909;43.644;-79.438;2024-01-15T09:25:08;21.70;21.50
33580;DHT22;19909;43.644;-79.438;2024-01-15T09:27:38;21.60;21.50
33580;DHT22;19909;43.644;-79.438;2024-01-15T09:30:05;21.60;21.60
33580;DHT22;19909;43.644;-79.438;2024-01-15T09:32:32;21.70;21.60
33580;DHT22;19909;43.644;-79.438;2024-01-15T09:34:58;21.70;21.50
33580;DHT22;19909;43.644;-79.438;2024-01-15T09:37:24;21.80;21.40
33580;DHT22;19909;43.644;-79.438;2024-01-15T09:39:51;22.00;21.40
33580;DHT22;19909;43.644;-79.438;2024-01-15T09:42:18;22.10;21.40
33580;DHT22;19909;43.644;-79.438;2024-01-15T09:44:46;22.10;21.30
33580;DHT22;19909;43.644;-79.438;2024-01-15T09:47:13;22.20;21.40
33580;DHT22;19909;43.644;-79.438;2024-01-15T09:49:40;22.20;21.40
33580;DHT22;19909;43.644;-79.438;2024-01-15T09:52:07;22.10;21.30
33580;DHT22;19909;43.644;-79.438;2024-01-15T09:54:34;22.10;21.30
33580;DHT22;19909;43.644;-79.438;2024-01-15T09:57:01;21.90;21.20
33580;DHT22;19909;43.644;-79.438;2024-01-15T09:59:28;21.80;21.10
33580;DHT22;19909;43.644;-79.438;2024-01-15T10:01:55;21.70;21.30
33580;DHT22;19909;43.644;-79.438;2024-01-15T10:04:23;21.60;21.40
33580;DHT22;19909;43.644;-79.438;2024-01-15T10:06:51;21.70;21.50
33580;DHT22;19909;43.644;-79.438;2024-01-15T10:09:17;21.70;21.50
33580;DHT22;19909;43.644;-79.438;2024-01-15T10:11:44;21.70;21.50
33580;DHT22;19909;43.644;-79.438;2024-01-15T10:14:12;21.80;21.40
33580;DHT22;19909;43.644;-79.438;2024-01-15T10:16:41;21.90;21.30
33580;DHT22;19909;43.644;-79.438;2024-01-15T10:19:08;22.00;21.30
33580;DHT22;19909;43.644;-79.438;2024-01-15T10:21:35;22.10;21.30
33580;DHT22;19909;43.644;-79.438;2024-01-15T10:24:03;22.20;21.30
33580;DHT22;19909;43.644;-79.438;2024-01-15T10:26:31;22.30;21.40
33580;DHT22;19909;43.644;-79.438;2024-01-15T10:29:01;22.30;21.30
33580;DHT22;19909;43.644;-79.438;2024-01-15T10:31:28;22.20;21.20
33580;DHT22;19909;43.644;-79.438;2024-01-15T10:33:54;22.10;21.20
33580;DHT22;19909;43.644;-79.438;2024-01-15T10:36:32;22.00;21.20
33580;DHT22;19909;43.644;-79.438;2024-01-15T10:38:58;21.90;21.20
33580;DHT22;19909;43.644;-79.438;2024-01-15T10:41:25;21.80;21.20
33580;DHT22;19909;43.644;-79.438;2024-01-15T10:43:52;21.70;21.30
33580;DHT22;19909;43.644;-79.438;2024-01-15T10:46:19;21.70;21.40
33580;DHT22;19909;43.644;-79.438;2024-01-15T10:48:45;21.70;21.50
33580;DHT22;19909;43.644;-79.438;2024-01-15T10:51:11;21.70;21.50
33580;DHT22;19909;43.644;-79.438;2024-01-15T10:53:39;21.80;21.40
33580;DHT22;19909;43.644;-79.438;2024-01-15T10:56:07;21.90;21.30
33580;DHT22;19909;43.644;-79.438;2024-01-15T10:58:35;22.00;21.30
33580;DHT22;19909;43.644;-79.438;2024-01-15T11:01:03;22.00;21.20
33580;DHT22;19909;43.644;-79.438;2024-01-15T11:03:30;22.20;21.30
33580;DHT22;19909;43.644;-79.438;2024-01-15T11:05:56;22.20;21.20
33580;DHT22;19909;43.644;-79.438;2024-01-15T11:08:25;22.30;21.30
33580;DHT22;19909;43.644;-79.438;2024-01-15T11:10:51;22.20;21.20
33580;DHT22;19909;43.644;-79.438;2024-01-15T11:13:39;22.10;21.20
33580;DHT22;19909;43.644;-79.438;2024-01-15T11:16:10;22.00;21.10
33580;DHT22;19909;43.644;-79.438;2024-01-15T11:19:01;21.90;21.10
33580;DHT22;19909;43.644;-79.438;2024-01-15T11:21:28;21.70;21.20
33580;DHT22;19909;43.644;-79.438;2024-01-15T11:24:00;21.70;21.30
33580;DHT22;19909;43.644;-79.438;2024-01-15T11:26:46;21.70;21.30
33580;DHT22;19909;43.644;-79.438;2024-01-15T11:29:36;21.70;21.30
33580;DHT22;19909;43.644;-79.438;2024-01-15T11:32:06;21.80;21.30
33580;DHT22;19909;43.644;-79.438;2024-01-15T11:34:51;21.90;21.20
33580;DHT22;19909;43.644;-79.438;2024-01-15T11:37:18;22.00;21.20
33580;DHT22;19909;43.644;-79.438;2024-01-15T11:39:46;22.10;21.10
33580;DHT22;19909;43.644;-79.438;2024-01-15T11:42:15;22.20;21.10
33580;DHT22;19909;43.644;-79.438;2024-01-15T11:44:44;22.20;21.20
33580;DHT22;19909;43.644;-79.438;2024-01-15T11:47:11;22.20;21.10
33580;DHT22;19909;43.644;-79.438;2024-01-15T11:50:01;22.10;21.00
33580;DHT22;19909;43.644;-79.438;2024-01-15T11:52:35;22.00;21.00
33580;DHT22;19909;43.644;-79.438;2024-01-15T11:55:14;21.90;21.00
33580;DHT22;19909;43.644;-79.438;2024-01-15T11:57:46;21.70;21.00
33580;DHT22;19909;43.644;-79.438;2024-01-15T12:00:13;21.70;21.10
33580;DHT22;19909;43.644;-79.438;2024-01-15T12:02:41;21.70;21.20
33580;DHT22;19909;43.644;-79.438;2024-01-15T12:05:12;21.70;21.20
33580;DHT22;19909;43.644;-79.438;2024-01-15T12:07:42;21.80;21.20
33580;DHT22;19909;43.644;-79.438;2024-01-15T12:10:13;21.80;21.10
33580;DHT22;19909;43.644;-79.438;2024-01-15T12:13:04;21.90;21.10
33580;DHT22;19909;43.644;-79.438;2024-01-15T12:15:32;22.00;21.00
33580;DHT22;19909;43.644;-79.438;2024-01-15T12:18:01;22.10;21.00
33580;DHT22;19909;43.644;-79.438;2024-01-15T12:20:29;22.20;21.10
33580;DHT22;19909;43.644;-79.438;2024-01-15T12:22:56;22.20;21.10
33580;DHT22;19909;43.644;-79.438;2024-01-15T12:25:24;22.20;21.00
33580;DHT22;19909;43.644;-79.438;2024-01-15T12:27:51;22.10;21.00
33580;DHT22;19909;43.644;-79.438;2024-01-15T12:30:18;22.00;21.00
33580;DHT22;19909;43.644;-79.438;2024-01-15T12:32:45;21.90;21.00
33580;DHT22;19909;43.644;-79.438;2024-01-15T12:35:15;21.80;21.10
33580;DHT22;19909;43.644;-79.438;2024-01-15T12:37:42;21.80;21.10
33580;DHT22;19909;43.644;-79.438;2024-01-15T12:40:10;21.80;21.20
33580;DHT22;19909;43.644;-79.438;2024-01-15T12:42:42;21.80;21.20
33580;DHT22;19909;43.644;-79.438;2024-01-15T12:45:13;21.80;21.00
33580;DHT22;19909;43.644;-79.438;2024-01-15T12:47:40;22.00;21.10
33580;DHT22;19909;43.644;-79.438;2024-01-15T12:50:10;22.00;21.00
33580;DHT22;19909;43.644;-79.438;2024-01-15T12:52:39;22.10;21.00
33580;DHT22;19909;43.644;-79.438;2024-01-15T12:55:07;22.20;21.10
33580;DHT22;19909;43.644;-79.438;2024-01-15T12:57:35;22.20;21.10
33580;DHT22;19909;43.644;-79.438;2024-01-15T13:00:02;22.10;20.90
33580;DHT22;19909;43.644;-79.438;2024-01-15T13:05:00;21.90;20.80
33580;DHT22;19909;43.644;-79.438;2024-01-15T13:07:26;21.80;20.80
33580;DHT22;19909;43.644;-79.438;2024-01-15T13:09:52;21.70;20.80
33580;DHT22;19909;43.644;-79.438;2024-01-15T13:12:20;21.70;20.90
33580;DHT22;19909;43.644;-79.438;2024-01-15T13:14:47;21.70;20.90
33580;DHT22;19909;43.644;-79.438;2024-01-15T13:17:13;21.70;20.90
33580;DHT22;19909;43.644;-79.438;2024-01-15T13:19:43;21.80;21.00
33580;DHT22;19909;43.644;-79.438;2024-01-15T13:22:09;21.80;20.90
33580;DHT22;19909;43.644;-79.438;2024-01-15T13:24:36;21.90;21.00
33580;DHT22;19909;43.644;-79.438;2024-01-15T13:27:03;22.00;21.00
33580;DHT22;19909;43.644;-79.438;2024-01-15T13:29:30;22.10;21.00
33580;DHT22;19909;43.644;-79.438;2024-01-15T13:31:57;22.20;21.00
33580;DHT22;19909;43.644;-79.438;2024-01-15T13:34:25;22.30;21.00
33580;DHT22;19909;43.644;-79.438;2024-01-15T13:36:52;22.40;20.90
33580;DHT22;19909;43.644;-79.438;2024-01-15T13:39:19;22.30;20.80
33580;DHT22;19909;43.644;-79.438;2024-01-15T13:41:47;22.20;20.80
33580;DHT22;19909;43.644;-79.438;2024-01-15T13:44:13;22.10;20.80
33580;DHT22;19909;43.644;-79.438;2024-01-15T13:46:39;22.10;20.80
33580;DHT22;19909;43.644;-79.438;2024-01-15T13:49:06;21.90;20.70
33580;DHT22;19909;43.644;-79.438;2024-01-15T13:51:33;21.80;20.70
33580;DHT22;19909;43.644;-79.438;2024-01-15T13:54:02;21.80;20.90
33580;DHT22;19909;43.644;-79.438;2024-01-15T13:56:30;21.80;20.90
33580;DHT22;19909;43.644;-79.438;2024-01-15T13:58:58;21.80;21.00
33580;DHT22;19909;43.644;-79.438;2024-01-15T14:01:25;21.90;20.90
33580;DHT22;19909;43.644;-79.438;2024-01-15T14:03:53;22.00;20.90
33580;DHT22;19909;43.644;-79.438;2024-01-15T14:06:19;22.10;20.90
33580;DHT22;19909;43.644;-79.438;2024-01-15T14:08:45;22.10;20.90
33580;DHT22;19909;43.644;-79.438;2024-01-15T14:11:12;22.20;21.00
33580;DHT22;19909;43.644;-79.438;2024-01-15T14:13:38;22.30;21.20
33580;DHT22;19909;43.644;-79.438;2024-01-15T14:16:05;22.40;21.10
33580;DHT22;19909;43.644;-79.438;2024-01-15T14:18:32;22.30;21.10
33580;DHT22;19909;43.644;-79.438;2024-01-15T14:20:58;22.30;21.00
33580;DHT22;19909;43.644;-79.438;2024-01-15T14:23:25;22.20;21.00
33580;DHT22;19909;43.644;-79.438;2024-01-15T14:25:51;22.10;21.00
33580;DHT22;19909;43.644;-79.438;2024-01-15T14:28:17;22.00;21.10
33580;DHT22;19909;43.644;-79.438;2024-01-15T14:30:43;22.00;21.20
33580;DHT22;19909;43.644;-79.438;2024-01-15T14:33:10;21.90;21.30
33580;DHT22;19909;43.644;-79.438;2024-01-15T14:35:36;21.90;21.40
33580;DHT22;19909;43.644;-79.438;2024-01-15T14:38:02;21.90;21.40
33580;DHT22;19909;43.644;-79.438;2024-01-15T14:40:29;22.00;21.50
33580;DHT22;19909;43.644;-79.438;2024-01-15T14:42:55;22.00;21.50
33580;DHT22;19909;43.644;-79.438;2024-01-15T14:45:21;22.10;21.60
33580;DHT22;19909;43.644;-79.438;2024-01-15T14:47:49;22.20;21.60
33580;DHT22;19909;43.644;-79.438;2024-01-15T14:50:15;22.40;21.60
33580;DHT22;19909;43.644;-79.438;2024-01-15T14:52:41;22.50;21.70
33580;DHT22;19909;43.644;-79.438;2024-01-15T14:55:12;22.50;21.50
33580;DHT22;19909;43.644;-79.438;2024-01-15T14:57:38;22.60;21.50
33580;DHT22;19909;43.644;-79.438;2024-01-15T15:00:06;22.50;21.40
33580;DHT22;19909;43.644;-79.438;2024-01-15T15:02:35;22.40;21.40
33580;DHT22;19909;43.644;-79.438;2024-01-15T15:05:02;22.30;21.40